静岡空港の過去48時間の天気

静岡空港 (Shizuoka)

現在時刻: 7/23 03:32 JST (7/22 18:32 UTC) 以下の時間は現地時間です。

過去48時間のMETAR気象情報
時間 風向 風速(m/s) 視程 気温(℃) 湿度(%) 気圧(hPa) 天気現象
22 21:00 西南西 2 10km以上 28 94 1009
22 20:00 南南西 3 10km以上 28 89 1008
22 19:00 南西 3 10km以上 29 79 1008
22 18:00 西南西 5 10km以上 30 70 1008
22 17:00 南西 5 10km以上 31 70 1007
22 16:00 南南西 5 10km以上 32 67 1008
22 15:00 南西 6 10km以上 32 71 1008
22 14:00 南南西 5 10km以上 33 63 1008
22 13:00 南西 3 10km以上 33 67 1009
22 12:00 南西 2 10km以上 32 67 1010
22 11:00 不定 2 10km以上 33 59 1010
22 10:00 不定 2 10km以上 31 66 1010
22 09:00 西南西 2 10km以上 30 66 1011
22 08:00 西 4 10km以上 29 74 1011
22 07:30 西 4 10km以上 28 100 1011
21 21:00 西南西 5 10km以上 27 100 1012
21 20:00 西南西 4 10km以上 27 100 1012
21 19:00 西南西 4 10km以上 28 79 1011
21 18:00 南西 4 10km以上 28 74 1011
21 17:00 西南西 5 10km以上 30 66 1011
21 16:00 南西 6 10km以上 31 62 1011
21 15:00 南南西 7 10km以上 31 66 1011
21 14:00 南西 7 10km以上 31 62 1011
21 13:00 南南西 6 10km以上 32 63 1012
21 12:00 南西 6 10km以上 32 63 1012
21 11:00 南南西 5 10km以上 31 70 1012
21 10:00 西 5 10km以上 31 62 1012
21 09:00 西南西 4 10km以上 30 66 1013
21 08:00 西南西 3 10km以上 29 74 1013
21 07:30 西 2 10km以上 28 79 1013
RJNS 221200Z 24004KT 9999 FEW030 BKN/// 28/27 Q1009
RJNS 221100Z 21005KT 9999 FEW030 BKN/// 28/26 Q1008
RJNS 221000Z 23006KT 9999 FEW030 BKN/// 29/25 Q1008
RJNS 220900Z 24009KT 9999 FEW030 BKN/// 30/24 Q1008
RJNS 220800Z 23009KT 200V260 9999 FEW030 BKN/// 31/25 Q1007
RJNS 220700Z 21010KT 9999 FEW030 BKN/// 32/25 Q1008
RJNS 220600Z 23011KT 9999 FEW020 BKN/// 32/26 Q1008
RJNS 220500Z 21010KT 9999 FEW020 BKN/// 33/25 Q1008
RJNS 220400Z 23006KT 170V290 9999 FEW020 SCT030 BKN/// 33/26 Q1009
RJNS 220300Z 22004KT 090V270 9999 FEW020 BKN030 32/25 Q1010
RJNS 220200Z VRB03KT 9999 FEW020 SCT030 33/24 Q1010
RJNS 220100Z VRB04KT 9999 FEW015 31/24 Q1010
RJNS 220000Z 25004KT 180V290 9999 FEW015 30/23 Q1011
RJNS 212300Z 26008KT 9999 FEW015 29/24 Q1011
RJNS 212230Z 26008KT 9999 FEW010 SCT020 28/28 Q1011
RJNS 211200Z 25009KT 9999 FEW015 BKN/// 27/27 Q1012
RJNS 211100Z 24007KT 9999 FEW020 BKN/// 27/27 Q1012
RJNS 211000Z 24008KT 210V280 9999 FEW020 BKN/// 28/24 Q1011
RJNS 210900Z 23008KT 200V280 9999 FEW020 BKN/// 28/23 Q1011
RJNS 210800Z 24009KT 190V260 9999 FEW020 BKN/// 30/23 Q1011
RJNS 210700Z 23012KT 190V260 9999 FEW020 BKN/// 31/23 Q1011
RJNS 210600Z 21013KT 9999 FEW020 BKN/// 31/24 Q1011
RJNS 210500Z 22013KT 9999 FEW020 SCT/// 31/23 Q1011
RJNS 210400Z 21011KT 170V250 9999 FEW020 32/24 Q1012
RJNS 210300Z 22011KT 200V260 9999 FEW020 32/24 Q1012
RJNS 210200Z 21009KT 180V260 9999 FEW020 31/25 Q1012
RJNS 210100Z 26010KT 9999 FEW020 31/23 Q1012
RJNS 210000Z 25007KT 160V310 9999 FEW020 30/23 Q1013
RJNS 202300Z 24006KT 200V260 9999 FEW015 29/24 Q1013
RJNS 202230Z 27004KT 220V300 9999 FEW015 28/24 Q1013